sensor_id;sensor_type;location;lat;lon;timestamp;P1;durP1;ratioP1;P2;durP2;ratioP2
21697;SDS011;11010;49.548;11.926;2023-02-01T00:02:26;6.63;;;2.10;;
21697;SDS011;11010;49.548;11.926;2023-02-01T00:04:53;11.40;;;3.77;;
21697;SDS011;11010;49.548;11.926;2023-02-01T00:07:21;8.37;;;2.83;;
21697;SDS011;11010;49.548;11.926;2023-02-01T00:09:48;8.57;;;3.03;;
21697;SDS011;11010;49.548;11.926;2023-02-01T00:12:16;9.87;;;3.30;;
21697;SDS011;11010;49.548;11.926;2023-02-01T00:14:43;8.87;;;3.23;;
21697;SDS011;11010;49.548;11.926;2023-02-01T00:17:11;9.70;;;2.93;;
21697;SDS011;11010;49.548;11.926;2023-02-01T00:19:38;5.83;;;2.07;;
21697;SDS011;11010;49.548;11.926;2023-02-01T00:22:05;8.03;;;2.73;;
21697;SDS011;11010;49.548;11.926;2023-02-01T00:24:33;5.23;;;1.83;;
21697;SDS011;11010;49.548;11.926;2023-02-01T00:27:00;8.70;;;2.73;;
21697;SDS011;11010;49.548;11.926;2023-02-01T00:29:28;8.50;;;2.17;;
21697;SDS011;11010;49.548;11.926;2023-02-01T00:31:56;7.30;;;2.20;;
21697;SDS011;11010;49.548;11.926;2023-02-01T00:34:23;6.60;;;2.13;;
21697;SDS011;11010;49.548;11.926;2023-02-01T00:36:51;7.47;;;2.60;;
21697;SDS011;11010;49.548;11.926;2023-02-01T00:39:18;4.23;;;1.43;;
21697;SDS011;11010;49.548;11.926;2023-02-01T00:41:45;7.90;;;2.40;;
21697;SDS011;11010;49.548;11.926;2023-02-01T00:44:13;7.27;;;2.40;;
21697;SDS011;11010;49.548;11.926;2023-02-01T00:46:40;7.20;;;2.30;;
21697;SDS011;11010;49.548;11.926;2023-02-01T00:49:08;6.27;;;1.73;;
21697;SDS011;11010;49.548;11.926;2023-02-01T00:51:35;5.80;;;2.37;;
21697;SDS011;11010;49.548;11.926;2023-02-01T00:54:03;7.37;;;2.00;;
21697;SDS011;11010;49.548;11.926;2023-02-01T00:56:30;5.10;;;1.57;;
21697;SDS011;11010;49.548;11.926;2023-02-01T00:58:58;8.57;;;2.50;;
21697;SDS011;11010;49.548;11.926;2023-02-01T01:01:26;6.83;;;2.23;;
21697;SDS011;11010;49.548;11.926;2023-02-01T01:03:55;4.57;;;1.33;;
21697;SDS011;11010;49.548;11.926;2023-02-01T01:06:27;8.17;;;2.60;;
21697;SDS011;11010;49.548;11.926;2023-02-01T01:08:55;7.80;;;2.43;;
21697;SDS011;11010;49.548;11.926;2023-02-01T01:11:24;7.57;;;2.37;;
21697;SDS011;11010;49.548;11.926;2023-02-01T01:13:52;6.80;;;2.13;;
21697;SDS011;11010;49.548;11.926;2023-02-01T01:16:21;6.00;;;1.57;;
21697;SDS011;11010;49.548;11.926;2023-02-01T01:18:49;6.03;;;1.90;;
21697;SDS011;11010;49.548;11.926;2023-02-01T01:21:16;5.53;;;1.60;;
21697;SDS011;11010;49.548;11.926;2023-02-01T01:23:44;5.80;;;2.00;;
21697;SDS011;11010;49.548;11.926;2023-02-01T01:26:13;5.27;;;1.50;;
21697;SDS011;11010;49.548;11.926;2023-02-01T01:28:41;6.80;;;2.00;;
21697;SDS011;11010;49.548;11.926;2023-02-01T01:31:12;3.50;;;1.20;;
21697;SDS011;11010;49.548;11.926;2023-02-01T01:33:40;6.97;;;2.03;;
21697;SDS011;11010;49.548;11.926;2023-02-01T01:36:10;3.73;;;1.23;;
21697;SDS011;11010;49.548;11.926;2023-02-01T01:38:41;7.87;;;2.20;;
21697;SDS011;11010;49.548;11.926;2023-02-01T01:41:11;6.67;;;2.00;;
21697;SDS011;11010;49.548;11.926;2023-02-01T01:44:01;8.63;;;2.50;;
21697;SDS011;11010;49.548;11.926;2023-02-01T01:46:31;8.60;;;2.77;;
21697;SDS011;11010;49.548;11.926;2023-02-01T01:49:22;7.30;;;2.30;;
21697;SDS011;11010;49.548;11.926;2023-02-01T01:54:17;9.63;;;3.20;;
21697;SDS011;11010;49.548;11.926;2023-02-01T01:56:48;5.50;;;1.80;;
21697;SDS011;11010;49.548;11.926;2023-02-01T01:59:16;9.40;;;3.30;;
21697;SDS011;11010;49.548;11.926;2023-02-01T02:01:44;9.33;;;2.90;;
21697;SDS011;11010;49.548;11.926;2023-02-01T02:04:12;9.50;;;3.37;;
21697;SDS011;11010;49.548;11.926;2023-02-01T02:06:45;6.77;;;2.37;;
21697;SDS011;11010;49.548;11.926;2023-02-01T02:09:14;8.83;;;3.27;;
21697;SDS011;11010;49.548;11.926;2023-02-01T02:11:42;8.53;;;3.23;;
21697;SDS011;11010;49.548;11.926;2023-02-01T02:14:11;9.53;;;3.50;;
21697;SDS011;11010;49.548;11.926;2023-02-01T02:16:40;7.33;;;2.70;;
21697;SDS011;11010;49.548;11.926;2023-02-01T02:27:02;6.73;;;2.20;;
21697;SDS011;11010;49.548;11.926;2023-02-01T02:35:29;7.70;;;2.70;;
21697;SDS011;11010;49.548;11.926;2023-02-01T02:37:54;7.10;;;1.93;;
21697;SDS011;11010;49.548;11.926;2023-02-01T02:40:36;5.27;;;1.60;;
21697;SDS011;11010;49.548;11.926;2023-02-01T02:49:00;5.77;;;1.90;;
21697;SDS011;11010;49.548;11.926;2023-02-01T02:51:34;9.77;;;2.90;;
21697;SDS011;11010;49.548;11.926;2023-02-01T02:54:31;4.40;;;1.53;;
21697;SDS011;11010;49.548;11.926;2023-02-01T02:57:37;5.30;;;2.00;;
21697;SDS011;11010;49.548;11.926;2023-02-01T03:00:27;9.93;;;2.90;;
21697;SDS011;11010;49.548;11.926;2023-02-01T03:03:14;4.97;;;1.80;;
21697;SDS011;11010;49.548;11.926;2023-02-01T03:06:00;10.27;;;3.00;;
21697;SDS011;11010;49.548;11.926;2023-02-01T03:08:28;5.10;;;1.67;;
21697;SDS011;11010;49.548;11.926;2023-02-01T03:10:58;8.53;;;3.00;;
21697;SDS011;11010;49.548;11.926;2023-02-01T03:13:36;6.60;;;2.43;;
21697;SDS011;11010;49.548;11.926;2023-02-01T03:21:16;8.43;;;2.83;;
21697;SDS011;11010;49.548;11.926;2023-02-01T03:23:44;6.80;;;2.60;;
21697;SDS011;11010;49.548;11.926;2023-02-01T03:26:14;4.83;;;1.83;;
21697;SDS011;11010;49.548;11.926;2023-02-01T03:28:47;7.17;;;2.43;;
21697;SDS011;11010;49.548;11.926;2023-02-01T03:31:15;7.90;;;2.80;;
21697;SDS011;11010;49.548;11.926;2023-02-01T03:33:43;7.97;;;2.83;;
21697;SDS011;11010;49.548;11.926;2023-02-01T03:37:13;9.07;;;2.90;;
21697;SDS011;11010;49.548;11.926;2023-02-01T03:39:13;10.40;;;3.00;;
21697;SDS011;11010;49.548;11.926;2023-02-01T03:44:50;6.87;;;2.50;;
21697;SDS011;11010;49.548;11.926;2023-02-01T03:47:23;7.27;;;2.80;;
21697;SDS011;11010;49.548;11.926;2023-02-01T03:49:54;6.67;;;2.10;;
21697;SDS011;11010;49.548;11.926;2023-02-01T03:52:31;9.27;;;3.10;;
21697;SDS011;11010;49.548;11.926;2023-02-01T03:55:02;6.40;;;2.23;;
21697;SDS011;11010;49.548;11.926;2023-02-01T03:57:32;9.97;;;3.27;;
21697;SDS011;11010;49.548;11.926;2023-02-01T04:02:57;7.27;;;2.50;;
21697;SDS011;11010;49.548;11.926;2023-02-01T04:05:25;6.40;;;2.37;;
21697;SDS011;11010;49.548;11.926;2023-02-01T04:07:57;7.93;;;2.70;;
21697;SDS011;11010;49.548;11.926;2023-02-01T04:10:25;8.10;;;2.67;;
21697;SDS011;11010;49.548;11.926;2023-02-01T04:12:52;8.83;;;2.80;;
21697;SDS011;11010;49.548;11.926;2023-02-01T04:15:20;9.50;;;2.90;;
21697;SDS011;11010;49.548;11.926;2023-02-01T04:17:47;7.17;;;2.47;;
21697;SDS011;11010;49.548;11.926;2023-02-01T04:20:15;5.73;;;2.00;;
21697;SDS011;11010;49.548;11.926;2023-02-01T04:22:43;7.37;;;2.33;;
21697;SDS011;11010;49.548;11.926;2023-02-01T04:25:10;8.33;;;2.50;;
21697;SDS011;11010;49.548;11.926;2023-02-01T04:27:38;8.80;;;2.20;;
21697;SDS011;11010;49.548;11.926;2023-02-01T04:30:08;7.70;;;2.10;;
21697;SDS011;11010;49.548;11.926;2023-02-01T04:32:36;8.97;;;2.80;;
21697;SDS011;11010;49.548;11.926;2023-02-01T04:35:04;5.60;;;1.83;;
21697;SDS011;11010;49.548;11.926;2023-02-01T04:37:32;6.20;;;2.07;;
21697;SDS011;11010;49.548;11.926;2023-02-01T04:40:00;7.93;;;2.20;;
21697;SDS011;11010;49.548;11.926;2023-02-01T04:42:30;5.67;;;1.83;;
21697;SDS011;11010;49.548;11.926;2023-02-01T04:44:57;7.10;;;2.00;;
21697;SDS011;11010;49.548;11.926;2023-02-01T04:47:24;8.53;;;2.70;;
21697;SDS011;11010;49.548;11.926;2023-02-01T04:49:52;9.47;;;3.10;;
21697;SDS011;11010;49.548;11.926;2023-02-01T04:52:20;6.30;;;2.13;;
21697;SDS011;11010;49.548;11.926;2023-02-01T05:05:08;6.73;;;2.53;;
21697;SDS011;11010;49.548;11.926;2023-02-01T05:07:36;10.20;;;2.90;;
21697;SDS011;11010;49.548;11.926;2023-02-01T05:10:03;8.70;;;3.03;;
21697;SDS011;11010;49.548;11.926;2023-02-01T05:12:31;8.40;;;3.07;;
21697;SDS011;11010;49.548;11.926;2023-02-01T05:15:17;7.63;;;2.53;;
21697;SDS011;11010;49.548;11.926;2023-02-01T05:17:44;9.07;;;3.00;;
21697;SDS011;11010;49.548;11.926;2023-02-01T05:20:11;9.77;;;3.10;;
21697;SDS011;11010;49.548;11.926;2023-02-01T05:22:40;7.97;;;2.90;;
21697;SDS011;11010;49.548;11.926;2023-02-01T05:25:07;8.30;;;2.90;;
21697;SDS011;11010;49.548;11.926;2023-02-01T05:27:35;9.93;;;3.60;;
21697;SDS011;11010;49.548;11.926;2023-02-01T05:30:03;8.20;;;2.30;;
21697;SDS011;11010;49.548;11.926;2023-02-01T05:32:31;6.20;;;2.23;;
21697;SDS011;11010;49.548;11.926;2023-02-01T05:34:59;9.23;;;2.50;;
21697;SDS011;11010;49.548;11.926;2023-02-01T05:37:26;10.07;;;3.30;;
21697;SDS011;11010;49.548;11.926;2023-02-01T05:39:54;13.83;;;5.93;;
21697;SDS011;11010;49.548;11.926;2023-02-01T05:42:21;33.43;;;14.77;;
21697;SDS011;11010;49.548;11.926;2023-02-01T05:44:49;14.53;;;5.83;;
21697;SDS011;11010;49.548;11.926;2023-02-01T05:47:16;14.27;;;6.77;;
21697;SDS011;11010;49.548;11.926;2023-02-01T05:49:43;10.80;;;4.50;;
21697;SDS011;11010;49.548;11.926;2023-02-01T05:52:11;8.73;;;3.23;;
21697;SDS011;11010;49.548;11.926;2023-02-01T05:54:38;7.60;;;2.63;;
21697;SDS011;11010;49.548;11.926;2023-02-01T05:57:05;8.80;;;3.30;;
21697;SDS011;11010;49.548;11.926;2023-02-01T05:59:33;4.20;;;1.60;;
21697;SDS011;11010;49.548;11.926;2023-02-01T06:02:00;7.23;;;2.23;;
21697;SDS011;11010;49.548;11.926;2023-02-01T06:04:27;8.60;;;2.97;;
21697;SDS011;11010;49.548;11.926;2023-02-01T06:06:55;8.17;;;2.90;;
21697;SDS011;11010;49.548;11.926;2023-02-01T06:09:22;6.00;;;2.40;;
21697;SDS011;11010;49.548;11.926;2023-02-01T06:11:50;15.20;;;5.47;;
21697;SDS011;11010;49.548;11.926;2023-02-01T06:14:17;13.87;;;5.23;;
21697;SDS011;11010;49.548;11.926;2023-02-01T06:16:44;9.40;;;3.00;;
21697;SDS011;11010;49.548;11.926;2023-02-01T06:19:13;7.97;;;2.83;;
21697;SDS011;11010;49.548;11.926;2023-02-01T06:21:40;8.07;;;2.93;;
21697;SDS011;11010;49.548;11.926;2023-02-01T06:24:08;4.53;;;1.63;;
21697;SDS011;11010;49.548;11.926;2023-02-01T06:26:36;8.83;;;3.30;;
21697;SDS011;11010;49.548;11.926;2023-02-01T06:29:09;7.63;;;2.47;;
21697;SDS011;11010;49.548;11.926;2023-02-01T06:31:37;9.93;;;3.33;;
21697;SDS011;11010;49.548;11.926;2023-02-01T06:34:04;12.40;;;2.60;;
21697;SDS011;11010;49.548;11.926;2023-02-01T06:36:32;8.07;;;2.83;;
21697;SDS011;11010;49.548;11.926;2023-02-01T06:38:59;8.73;;;2.93;;
21697;SDS011;11010;49.548;11.926;2023-02-01T06:41:26;8.57;;;2.37;;
21697;SDS011;11010;49.548;11.926;2023-02-01T06:43:55;6.80;;;2.37;;
21697;SDS011;11010;49.548;11.926;2023-02-01T06:46:22;7.37;;;2.30;;
21697;SDS011;11010;49.548;11.926;2023-02-01T06:48:50;9.07;;;3.13;;
21697;SDS011;11010;49.548;11.926;2023-02-01T06:51:18;9.33;;;2.53;;
21697;SDS011;11010;49.548;11.926;2023-02-01T06:53:46;6.37;;;1.97;;
21697;SDS011;11010;49.548;11.926;2023-02-01T06:56:14;11.23;;;2.43;;
21697;SDS011;11010;49.548;11.926;2023-02-01T06:58:41;9.70;;;3.13;;
21697;SDS011;11010;49.548;11.926;2023-02-01T07:01:09;7.73;;;1.80;;
21697;SDS011;11010;49.548;11.926;2023-02-01T07:03:37;7.57;;;2.10;;
21697;SDS011;11010;49.548;11.926;2023-02-01T07:06:05;6.77;;;1.83;;
21697;SDS011;11010;49.548;11.926;2023-02-01T07:08:34;5.80;;;1.93;;
21697;SDS011;11010;49.548;11.926;2023-02-01T07:11:02;10.33;;;2.50;;
21697;SDS011;11010;49.548;11.926;2023-02-01T07:13:30;7.73;;;2.23;;
21697;SDS011;11010;49.548;11.926;2023-02-01T07:16:01;6.03;;;1.70;;
21697;SDS011;11010;49.548;11.926;2023-02-01T07:18:29;9.33;;;2.20;;
21697;SDS011;11010;49.548;11.926;2023-02-01T07:20:57;8.67;;;2.00;;
21697;SDS011;11010;49.548;11.926;2023-02-01T07:23:25;9.23;;;2.63;;
21697;SDS011;11010;49.548;11.926;2023-02-01T07:25:53;9.80;;;2.33;;
21697;SDS011;11010;49.548;11.926;2023-02-01T07:28:21;9.90;;;2.30;;
21697;SDS011;11010;49.548;11.926;2023-02-01T07:30:48;7.77;;;2.30;;
21697;SDS011;11010;49.548;11.926;2023-02-01T07:33:20;11.87;;;1.77;;
21697;SDS011;11010;49.548;11.926;2023-02-01T07:35:48;9.20;;;2.20;;
21697;SDS011;11010;49.548;11.926;2023-02-01T07:38:16;7.27;;;1.93;;
21697;SDS011;11010;49.548;11.926;2023-02-01T07:40:43;6.57;;;1.50;;
21697;SDS011;11010;49.548;11.926;2023-02-01T07:43:11;6.57;;;1.53;;
21697;SDS011;11010;49.548;11.926;2023-02-01T07:45:38;2.13;;;0.90;;
21697;SDS011;11010;49.548;11.926;2023-02-01T07:48:05;5.73;;;1.40;;
21697;SDS011;11010;49.548;11.926;2023-02-01T07:50:33;6.93;;;1.50;;
21697;SDS011;11010;49.548;11.926;2023-02-01T07:53:00;5.67;;;1.73;;
21697;SDS011;11010;49.548;11.926;2023-02-01T07:55:28;6.97;;;1.80;;
21697;SDS011;11010;49.548;11.926;2023-02-01T07:57:58;4.80;;;1.00;;
21697;SDS011;11010;49.548;11.926;2023-02-01T08:00:26;6.90;;;1.43;;
21697;SDS011;11010;49.548;11.926;2023-02-01T08:03:11;6.50;;;1.57;;
21697;SDS011;11010;49.548;11.926;2023-02-01T08:05:42;4.30;;;1.30;;
21697;SDS011;11010;49.548;11.926;2023-02-01T08:08:09;5.43;;;1.30;;
21697;SDS011;11010;49.548;11.926;2023-02-01T08:10:37;3.93;;;1.10;;
21697;SDS011;11010;49.548;11.926;2023-02-01T08:13:04;3.57;;;1.10;;
21697;SDS011;11010;49.548;11.926;2023-02-01T08:15:32;5.97;;;1.10;;
21697;SDS011;11010;49.548;11.926;2023-02-01T08:17:59;7.83;;;1.47;;
21697;SDS011;11010;49.548;11.926;2023-02-01T08:20:28;5.93;;;1.40;;
21697;SDS011;11010;49.548;11.926;2023-02-01T08:22:56;7.07;;;1.70;;
21697;SDS011;11010;49.548;11.926;2023-02-01T08:25:23;6.30;;;1.50;;
21697;SDS011;11010;49.548;11.926;2023-02-01T08:27:51;4.97;;;1.33;;
21697;SDS011;11010;49.548;11.926;2023-02-01T08:30:19;5.30;;;1.00;;
21697;SDS011;11010;49.548;11.926;2023-02-01T08:32:48;6.00;;;1.50;;
21697;SDS011;11010;49.548;11.926;2023-02-01T08:35:16;8.80;;;2.00;;
21697;SDS011;11010;49.548;11.926;2023-02-01T08:37:43;8.20;;;1.53;;
21697;SDS011;11010;49.548;11.926;2023-02-01T08:40:10;10.13;;;1.53;;
21697;SDS011;11010;49.548;11.926;2023-02-01T08:42:40;6.77;;;1.60;;
21697;SDS011;11010;49.548;11.926;2023-02-01T08:45:27;5.20;;;1.33;;
21697;SDS011;11010;49.548;11.926;2023-02-01T08:47:58;7.07;;;1.60;;
21697;SDS011;11010;49.548;11.926;2023-02-01T08:50:25;7.00;;;1.57;;
21697;SDS011;11010;49.548;11.926;2023-02-01T08:52:53;6.73;;;1.77;;
21697;SDS011;11010;49.548;11.926;2023-02-01T08:55:21;9.40;;;1.77;;
21697;SDS011;11010;49.548;11.926;2023-02-01T08:57:48;7.30;;;1.90;;
21697;SDS011;11010;49.548;11.926;2023-02-01T09:00:16;8.33;;;1.70;;
21697;SDS011;11010;49.548;11.926;2023-02-01T09:02:44;7.57;;;1.80;;
21697;SDS011;11010;49.548;11.926;2023-02-01T09:05:12;8.67;;;1.80;;
21697;SDS011;11010;49.548;11.926;2023-02-01T09:07:40;6.37;;;1.67;;
21697;SDS011;11010;49.548;11.926;2023-02-01T09:10:08;4.60;;;1.30;;
21697;SDS011;11010;49.548;11.926;2023-02-01T09:12:35;5.23;;;1.40;;
21697;SDS011;11010;49.548;11.926;2023-02-01T09:15:04;9.27;;;2.17;;
21697;SDS011;11010;49.548;11.926;2023-02-01T09:17:33;5.03;;;1.50;;
21697;SDS011;11010;49.548;11.926;2023-02-01T09:20:01;8.43;;;1.70;;
21697;SDS011;11010;49.548;11.926;2023-02-01T09:22:28;6.30;;;1.23;;
21697;SDS011;11010;49.548;11.926;2023-02-01T09:24:56;5.93;;;1.40;;
21697;SDS011;11010;49.548;11.926;2023-02-01T09:27:23;10.23;;;1.83;;
21697;SDS011;11010;49.548;11.926;2023-02-01T09:29:51;6.90;;;1.57;;
21697;SDS011;11010;49.548;11.926;2023-02-01T09:32:21;6.07;;;1.63;;
21697;SDS011;11010;49.548;11.926;2023-02-01T09:34:50;4.83;;;1.37;;
21697;SDS011;11010;49.548;11.926;2023-02-01T09:37:18;7.27;;;1.50;;
21697;SDS011;11010;49.548;11.926;2023-02-01T09:39:45;8.97;;;1.80;;
21697;SDS011;11010;49.548;11.926;2023-02-01T09:45:03;9.57;;;1.90;;
21697;SDS011;11010;49.548;11.926;2023-02-01T09:47:34;8.47;;;1.63;;
21697;SDS011;11010;49.548;11.926;2023-02-01T09:53:13;10.47;;;2.00;;
21697;SDS011;11010;49.548;11.926;2023-02-01T09:55:23;6.07;;;1.40;;
21697;SDS011;11010;49.548;11.926;2023-02-01T09:57:58;5.63;;;1.47;;
21697;SDS011;11010;49.548;11.926;2023-02-01T10:00:35;6.00;;;1.57;;
21697;SDS011;11010;49.548;11.926;2023-02-01T10:03:42;6.30;;;1.40;;
21697;SDS011;11010;49.548;11.926;2023-02-01T10:11:42;6.73;;;1.10;;
21697;SDS011;11010;49.548;11.926;2023-02-01T10:16:48;7.30;;;1.40;;
21697;SDS011;11010;49.548;11.926;2023-02-01T10:19:24;10.83;;;1.60;;
21697;SDS011;11010;49.548;11.926;2023-02-01T10:21:59;5.73;;;1.50;;
21697;SDS011;11010;49.548;11.926;2023-02-01T10:27:02;4.43;;;1.20;;
21697;SDS011;11010;49.548;11.926;2023-02-01T10:29:36;13.67;;;1.60;;
21697;SDS011;11010;49.548;11.926;2023-02-01T10:32:20;4.67;;;1.20;;
21697;SDS011;11010;49.548;11.926;2023-02-01T10:35:31;6.63;;;1.50;;
21697;SDS011;11010;49.548;11.926;2023-02-01T10:37:39;5.70;;;1.47;;
21697;SDS011;11010;49.548;11.926;2023-02-01T10:42:41;8.70;;;1.40;;
21697;SDS011;11010;49.548;11.926;2023-02-01T10:45:12;8.13;;;1.83;;
21697;SDS011;11010;49.548;11.926;2023-02-01T10:47:41;4.07;;;0.97;;
21697;SDS011;11010;49.548;11.926;2023-02-01T10:53:12;5.40;;;1.20;;
21697;SDS011;11010;49.548;11.926;2023-02-01T10:58:29;6.27;;;1.30;;
21697;SDS011;11010;49.548;11.926;2023-02-01T11:01:06;9.57;;;1.60;;
21697;SDS011;11010;49.548;11.926;2023-02-01T11:06:32;5.13;;;1.17;;
21697;SDS011;11010;49.548;11.926;2023-02-01T11:09:22;5.03;;;1.07;;
21697;SDS011;11010;49.548;11.926;2023-02-01T11:16:49;8.17;;;1.30;;
21697;SDS011;11010;49.548;11.926;2023-02-01T11:19:19;11.23;;;1.90;;
21697;SDS011;11010;49.548;11.926;2023-02-01T11:21:50;5.80;;;1.20;;
21697;SDS011;11010;49.548;11.926;2023-02-01T11:24:22;7.53;;;1.23;;
21697;SDS011;11010;49.548;11.926;2023-02-01T11:26:50;7.63;;;1.23;;
21697;SDS011;11010;49.548;11.926;2023-02-01T11:29:19;9.93;;;1.73;;
21697;SDS011;11010;49.548;11.926;2023-02-01T11:31:48;7.47;;;1.73;;
21697;SDS011;11010;49.548;11.926;2023-02-01T11:34:17;7.57;;;1.40;;
21697;SDS011;11010;49.548;11.926;2023-02-01T11:36:48;8.73;;;1.70;;
21697;SDS011;11010;49.548;11.926;2023-02-01T11:44:29;8.37;;;1.80;;
21697;SDS011;11010;49.548;11.926;2023-02-01T11:47:20;8.97;;;1.57;;
21697;SDS011;11010;49.548;11.926;2023-02-01T11:49:46;8.00;;;1.40;;
21697;SDS011;11010;49.548;11.926;2023-02-01T12:03:49;8.67;;;1.50;;
21697;SDS011;11010;49.548;11.926;2023-02-01T12:05:52;6.90;;;1.30;;
21697;SDS011;11010;49.548;11.926;2023-02-01T12:11:16;10.90;;;1.73;;
21697;SDS011;11010;49.548;11.926;2023-02-01T12:19:12;7.77;;;1.90;;
21697;SDS011;11010;49.548;11.926;2023-02-01T12:37:27;2.07;;;0.77;;
21697;SDS011;11010;49.548;11.926;2023-02-01T12:42:36;8.27;;;1.80;;
21697;SDS011;11010;49.548;11.926;2023-02-01T12:45:15;2.17;;;0.70;;
21697;SDS011;11010;49.548;11.926;2023-02-01T12:47:49;7.93;;;1.53;;
21697;SDS011;11010;49.548;11.926;2023-02-01T12:50:25;6.77;;;1.60;;
21697;SDS011;11010;49.548;11.926;2023-02-01T12:52:56;8.57;;;1.50;;
21697;SDS011;11010;49.548;11.926;2023-02-01T13:08:36;9.03;;;1.83;;
21697;SDS011;11010;49.548;11.926;2023-02-01T13:11:13;5.70;;;1.73;;
21697;SDS011;11010;49.548;11.926;2023-02-01T13:13:48;7.30;;;1.30;;
21697;SDS011;11010;49.548;11.926;2023-02-01T13:16:25;9.60;;;1.77;;
21697;SDS011;11010;49.548;11.926;2023-02-01T13:19:33;6.57;;;1.53;;
21697;SDS011;11010;49.548;11.926;2023-02-01T13:21:54;9.73;;;1.57;;
21697;SDS011;11010;49.548;11.926;2023-02-01T13:27:11;8.50;;;1.90;;
21697;SDS011;11010;49.548;11.926;2023-02-01T13:29:40;6.37;;;1.40;;
21697;SDS011;11010;49.548;11.926;2023-02-01T13:37:29;8.43;;;1.67;;
21697;SDS011;11010;49.548;11.926;2023-02-01T13:42:51;9.23;;;1.90;;
21697;SDS011;11010;49.548;11.926;2023-02-01T13:45:20;8.33;;;1.53;;
21697;SDS011;11010;49.548;11.926;2023-02-01T13:47:50;7.60;;;1.50;;
21697;SDS011;11010;49.548;11.926;2023-02-01T13:53:00;3.63;;;0.90;;
21697;SDS011;11010;49.548;11.926;2023-02-01T13:55:29;7.57;;;1.53;;
21697;SDS011;11010;49.548;11.926;2023-02-01T13:58:02;7.43;;;1.17;;
21697;SDS011;11010;49.548;11.926;2023-02-01T14:00:33;5.67;;;1.40;;
21697;SDS011;11010;49.548;11.926;2023-02-01T14:13:32;6.73;;;1.30;;
21697;SDS011;11010;49.548;11.926;2023-02-01T14:31:36;3.10;;;1.00;;
21697;SDS011;11010;49.548;11.926;2023-02-01T14:34:10;9.63;;;1.90;;
21697;SDS011;11010;49.548;11.926;2023-02-01T14:36:39;5.90;;;1.40;;
21697;SDS011;11010;49.548;11.926;2023-02-01T14:44:47;6.63;;;1.57;;
21697;SDS011;11010;49.548;11.926;2023-02-01T14:52:40;4.53;;;1.10;;
21697;SDS011;11010;49.548;11.926;2023-02-01T14:55:37;10.20;;;1.60;;
21697;SDS011;11010;49.548;11.926;2023-02-01T14:58:00;7.37;;;1.53;;
21697;SDS011;11010;49.548;11.926;2023-02-01T15:00:30;7.07;;;1.53;;
21697;SDS011;11010;49.548;11.926;2023-02-01T15:03:41;5.97;;;1.33;;
21697;SDS011;11010;49.548;11.926;2023-02-01T15:05:56;5.07;;;0.70;;
21697;SDS011;11010;49.548;11.926;2023-02-01T15:08:26;9.07;;;1.30;;
21697;SDS011;11010;49.548;11.926;2023-02-01T15:10:55;11.53;;;2.00;;
21697;SDS011;11010;49.548;11.926;2023-02-01T15:13:25;8.10;;;1.43;;
21697;SDS011;11010;49.548;11.926;2023-02-01T15:16:03;5.67;;;1.53;;
21697;SDS011;11010;49.548;11.926;2023-02-01T15:18:31;7.10;;;1.20;;
21697;SDS011;11010;49.548;11.926;2023-02-01T15:20:59;9.90;;;2.00;;
21697;SDS011;11010;49.548;11.926;2023-02-01T15:23:47;5.10;;;1.47;;
21697;SDS011;11010;49.548;11.926;2023-02-01T15:26:26;8.30;;;1.53;;
21697;SDS011;11010;49.548;11.926;2023-02-01T15:28:56;6.37;;;1.40;;
21697;SDS011;11010;49.548;11.926;2023-02-01T15:31:40;8.37;;;1.87;;
21697;SDS011;11010;49.548;11.926;2023-02-01T15:34:09;6.83;;;1.30;;
21697;SDS011;11010;49.548;11.926;2023-02-01T15:36:37;12.27;;;4.03;;
21697;SDS011;11010;49.548;11.926;2023-02-01T15:41:48;10.57;;;2.07;;
21697;SDS011;11010;49.548;11.926;2023-02-01T15:44:30;8.10;;;1.60;;
21697;SDS011;11010;49.548;11.926;2023-02-01T15:46:58;10.50;;;1.70;;
21697;SDS011;11010;49.548;11.926;2023-02-01T15:49:32;7.77;;;1.30;;
21697;SDS011;11010;49.548;11.926;2023-02-01T15:52:03;7.63;;;1.40;;
21697;SDS011;11010;49.548;11.926;2023-02-01T15:54:49;6.07;;;1.17;;
21697;SDS011;11010;49.548;11.926;2023-02-01T15:57:23;10.87;;;1.60;;
21697;SDS011;11010;49.548;11.926;2023-02-01T15:59:57;5.40;;;1.07;;
21697;SDS011;11010;49.548;11.926;2023-02-01T16:02:33;8.43;;;1.50;;
21697;SDS011;11010;49.548;11.926;2023-02-01T16:05:01;6.77;;;1.30;;
21697;SDS011;11010;49.548;11.926;2023-02-01T16:07:30;4.37;;;1.10;;
21697;SDS011;11010;49.548;11.926;2023-02-01T16:09:59;7.07;;;1.37;;
21697;SDS011;11010;49.548;11.926;2023-02-01T16:12:33;11.03;;;1.97;;
21697;SDS011;11010;49.548;11.926;2023-02-01T16:15:02;6.30;;;1.33;;
21697;SDS011;11010;49.548;11.926;2023-02-01T16:17:30;4.53;;;1.40;;
21697;SDS011;11010;49.548;11.926;2023-02-01T16:19:57;8.13;;;1.50;;
21697;SDS011;11010;49.548;11.926;2023-02-01T16:22:25;2.80;;;0.90;;
21697;SDS011;11010;49.548;11.926;2023-02-01T16:24:52;9.83;;;1.60;;
21697;SDS011;11010;49.548;11.926;2023-02-01T16:27:20;6.87;;;1.20;;
21697;SDS011;11010;49.548;11.926;2023-02-01T16:29:48;12.80;;;1.00;;
21697;SDS011;11010;49.548;11.926;2023-02-01T16:32:18;9.63;;;1.77;;
21697;SDS011;11010;49.548;11.926;2023-02-01T16:34:46;4.63;;;1.07;;
21697;SDS011;11010;49.548;11.926;2023-02-01T16:37:21;8.07;;;1.70;;
21697;SDS011;11010;49.548;11.926;2023-02-01T16:39:48;6.60;;;1.23;;
21697;SDS011;11010;49.548;11.926;2023-02-01T16:42:16;8.53;;;1.53;;
21697;SDS011;11010;49.548;11.926;2023-02-01T16:44:44;10.03;;;1.73;;
21697;SDS011;11010;49.548;11.926;2023-02-01T16:47:16;7.73;;;1.40;;
21697;SDS011;11010;49.548;11.926;2023-02-01T16:49:47;4.97;;;1.37;;
21697;SDS011;11010;49.548;11.926;2023-02-01T16:52:19;7.50;;;1.43;;
21697;SDS011;11010;49.548;11.926;2023-02-01T16:54:48;14.20;;;1.80;;
21697;SDS011;11010;49.548;11.926;2023-02-01T16:57:16;8.37;;;1.70;;
21697;SDS011;11010;49.548;11.926;2023-02-01T16:59:44;7.80;;;1.50;;
21697;SDS011;11010;49.548;11.926;2023-02-01T17:02:16;10.40;;;1.60;;
21697;SDS011;11010;49.548;11.926;2023-02-01T17:04:45;6.87;;;1.60;;
21697;SDS011;11010;49.548;11.926;2023-02-01T17:07:15;7.73;;;1.43;;
21697;SDS011;11010;49.548;11.926;2023-02-01T17:09:43;8.33;;;1.67;;
21697;SDS011;11010;49.548;11.926;2023-02-01T17:14:50;8.13;;;1.90;;
21697;SDS011;11010;49.548;11.926;2023-02-01T17:17:18;7.70;;;1.50;;
21697;SDS011;11010;49.548;11.926;2023-02-01T17:20:03;9.07;;;1.80;;
21697;SDS011;11010;49.548;11.926;2023-02-01T17:22:32;10.83;;;2.63;;
21697;SDS011;11010;49.548;11.926;2023-02-01T17:24:59;12.67;;;2.30;;
21697;SDS011;11010;49.548;11.926;2023-02-01T17:27:27;8.23;;;2.30;;
21697;SDS011;11010;49.548;11.926;2023-02-01T17:29:55;7.43;;;1.77;;
21697;SDS011;11010;49.548;11.926;2023-02-01T17:32:23;11.83;;;1.77;;
21697;SDS011;11010;49.548;11.926;2023-02-01T17:34:52;10.87;;;1.37;;
21697;SDS011;11010;49.548;11.926;2023-02-01T17:37:27;5.53;;;1.30;;
21697;SDS011;11010;49.548;11.926;2023-02-01T17:39:54;8.97;;;1.53;;
21697;SDS011;11010;49.548;11.926;2023-02-01T17:42:23;7.10;;;1.17;;
21697;SDS011;11010;49.548;11.926;2023-02-01T17:44:51;6.70;;;1.47;;
21697;SDS011;11010;49.548;11.926;2023-02-01T17:47:21;5.53;;;1.20;;
21697;SDS011;11010;49.548;11.926;2023-02-01T17:49:48;7.57;;;1.33;;
21697;SDS011;11010;49.548;11.926;2023-02-01T17:52:22;9.80;;;1.60;;
21697;SDS011;11010;49.548;11.926;2023-02-01T17:54:50;8.30;;;1.67;;
21697;SDS011;11010;49.548;11.926;2023-02-01T17:57:19;9.53;;;1.60;;
21697;SDS011;11010;49.548;11.926;2023-02-01T17:59:47;7.03;;;1.47;;
21697;SDS011;11010;49.548;11.926;2023-02-01T18:02:19;6.40;;;1.40;;